createdAt,value
2023-02-11T00:01:28.564Z,91.00
2023-02-11T00:03:59.903Z,93.68
2023-02-11T00:06:31.789Z,105.88
2023-02-11T00:09:02.454Z,86.85
2023-02-11T00:11:33.088Z,89.60
2023-02-11T00:14:05.025Z,100.25
2023-02-11T00:16:36.026Z,93.75
2023-02-11T00:19:08.129Z,90.68
2023-02-11T00:21:38.632Z,88.07
2023-02-11T00:24:09.184Z,89.28
2023-02-11T00:26:39.326Z,90.88
2023-02-11T00:29:09.769Z,102.97
2023-02-11T00:31:40.090Z,97.43
2023-02-11T00:34:10.850Z,91.93
2023-02-11T00:36:41.421Z,97.35
2023-02-11T00:39:11.693Z,92.95
2023-02-11T00:41:42.350Z,92.10
2023-02-11T00:44:12.798Z,87.35
2023-02-11T00:46:43.654Z,101.00
2023-02-11T00:49:14.433Z,127.82
2023-02-11T00:51:44.818Z,155.80
2023-02-11T00:54:15.671Z,113.50
2023-02-11T00:56:46.069Z,96.03
2023-02-11T00:59:16.465Z,87.80
2023-02-11T01:01:49.075Z,80.80
2023-02-11T01:04:19.225Z,81.00
2023-02-11T01:06:50.086Z,78.20
2023-02-11T01:09:21.179Z,81.13
2023-02-11T01:11:51.988Z,83.88
2023-02-11T01:14:22.036Z,87.55
2023-02-11T01:16:54.367Z,84.68
2023-02-11T01:19:24.869Z,73.40
2023-02-11T01:21:54.972Z,80.03
2023-02-11T01:24:25.088Z,83.13
2023-02-11T01:26:55.730Z,77.97
2023-02-11T01:29:27.338Z,83.97
2023-02-11T01:31:57.853Z,81.70
2023-02-11T01:34:29.216Z,85.47
2023-02-11T01:37:01.325Z,82.00
2023-02-11T01:39:35.510Z,81.50
2023-02-11T01:42:06.146Z,92.75
2023-02-11T01:44:38.674Z,83.65
2023-02-11T01:47:09.350Z,73.68
2023-02-11T01:49:42.248Z,81.60
2023-02-11T01:52:15.282Z,86.45
2023-02-11T01:55:07.420Z,89.03
2023-02-11T01:57:38.857Z,87.22
2023-02-11T02:00:18.245Z,83.13
2023-02-11T02:02:55.749Z,81.65
2023-02-11T02:05:33.967Z,73.35
2023-02-11T02:08:23.675Z,74.05
2023-02-11T02:10:58.079Z,74.70
2023-02-11T02:13:29.044Z,79.00
2023-02-11T02:16:03.609Z,78.93
2023-02-11T02:18:54.824Z,76.50
2023-02-11T02:21:34.473Z,76.68
2023-02-11T02:24:23.875Z,75.53
2023-02-11T02:27:14.153Z,76.47
2023-02-11T02:30:03.739Z,78.43
2023-02-11T02:32:37.656Z,82.60
2023-02-11T02:35:27.361Z,87.65
2023-02-11T02:38:17.783Z,68.60
2023-02-11T02:40:51.374Z,77.13
2023-02-11T02:43:22.285Z,79.45
2023-02-11T02:45:52.923Z,79.63
2023-02-11T02:48:30.908Z,74.63
2023-02-11T02:51:20.560Z,73.68
2023-02-11T02:54:00.989Z,72.45
2023-02-11T02:56:44.042Z,61.40
2023-02-11T02:59:33.729Z,64.25
2023-02-11T03:02:23.994Z,61.53
2023-02-11T03:05:13.694Z,66.13
2023-02-11T03:08:04.028Z,59.72
2023-02-11T03:10:37.308Z,60.85
2023-02-11T03:13:09.186Z,62.10
2023-02-11T03:15:45.739Z,55.80
2023-02-11T03:18:17.411Z,59.78
2023-02-11T03:20:51.021Z,61.85
2023-02-11T03:23:23.960Z,60.50
2023-02-11T03:26:11.165Z,58.63
2023-02-11T03:28:54.123Z,61.58
2023-02-11T03:31:43.842Z,57.33
2023-02-11T03:34:33.933Z,52.88
2023-02-11T03:37:14.856Z,56.40
2023-02-11T03:40:04.530Z,57.97
2023-02-11T03:42:54.550Z,53.28
2023-02-11T03:45:27.061Z,55.08
2023-02-11T03:47:59.734Z,49.83
2023-02-11T03:50:33.110Z,49.80
2023-02-11T03:53:04.560Z,51.60
2023-02-11T03:55:37.828Z,45.58
2023-02-11T03:58:08.101Z,48.92
2023-02-11T04:00:41.229Z,51.28
2023-02-11T04:03:12.136Z,46.53
2023-02-11T04:05:42.945Z,49.88
2023-02-11T04:08:13.047Z,50.65
2023-02-11T04:10:43.556Z,42.80
2023-02-11T04:13:16.724Z,42.13
2023-02-11T04:15:48.897Z,40.75
2023-02-11T04:18:19.996Z,40.08
2023-02-11T04:20:50.643Z,40.03
2023-02-11T04:23:21.391Z,42.70
2023-02-11T04:25:52.519Z,43.42
2023-02-11T04:28:23.560Z,38.10
2023-02-11T04:30:54.290Z,36.65
2023-02-11T04:33:25.009Z,40.80
2023-02-11T04:35:55.490Z,36.00
2023-02-11T04:38:28.605Z,40.88
2023-02-11T04:41:02.100Z,39.22
2023-02-11T04:43:32.574Z,39.65
2023-02-11T04:46:03.485Z,38.65
2023-02-11T04:48:34.024Z,37.53
2023-02-11T04:51:04.698Z,72.40
2023-02-11T04:53:34.853Z,37.70
2023-02-11T04:56:04.700Z,39.35
2023-02-11T04:58:34.580Z,38.00
2023-02-11T05:01:12.171Z,38.03
2023-02-11T05:03:42.817Z,42.10
2023-02-11T05:06:13.894Z,36.95
2023-02-11T05:08:44.264Z,35.75
2023-02-11T05:11:19.561Z,43.33
2023-02-11T05:13:50.287Z,42.83
2023-02-11T05:16:21.303Z,84.65
2023-02-11T05:18:52.701Z,36.85
2023-02-11T05:21:23.221Z,33.17
2023-02-11T05:23:53.594Z,34.35
2023-02-11T05:26:23.862Z,33.10
2023-02-11T05:28:54.236Z,32.70
2023-02-11T05:31:24.446Z,32.63
2023-02-11T05:33:54.819Z,31.55
2023-02-11T05:36:25.326Z,32.42
2023-02-11T05:38:55.727Z,37.70
2023-02-11T05:41:25.836Z,34.25
2023-02-11T05:43:56.204Z,32.17
2023-02-11T05:46:26.819Z,37.85
2023-02-11T05:48:58.194Z,30.52
2023-02-11T05:51:29.022Z,31.02
2023-02-11T05:53:59.752Z,31.42
2023-02-11T05:56:30.301Z,31.58
2023-02-11T05:59:01.720Z,32.60
2023-02-11T06:01:32.133Z,28.40
2023-02-11T06:04:02.760Z,33.67
2023-02-11T06:06:33.422Z,33.58
2023-02-11T06:09:03.711Z,33.05
2023-02-11T06:11:34.154Z,33.50
2023-02-11T06:14:04.577Z,30.63
2023-02-11T06:16:34.792Z,31.20
2023-02-11T06:19:05.829Z,31.02
2023-02-11T06:21:43.907Z,30.27
2023-02-11T06:24:17.403Z,29.25
2023-02-11T06:26:49.350Z,29.08
2023-02-11T06:29:19.531Z,28.45
2023-02-11T06:31:50.297Z,28.02
2023-02-11T06:34:20.566Z,31.63
2023-02-11T06:36:50.775Z,27.80
2023-02-11T06:39:21.277Z,28.25
2023-02-11T06:41:51.492Z,24.25
2023-02-11T06:44:22.449Z,25.42
2023-02-11T06:46:52.682Z,27.38
2023-02-11T06:49:23.277Z,25.73
2023-02-11T06:51:54.004Z,25.48
2023-02-11T06:54:24.387Z,22.30
2023-02-11T06:56:54.637Z,25.70
2023-02-11T06:59:25.027Z,23.45
2023-02-11T07:01:55.409Z,24.48
2023-02-11T07:04:25.460Z,23.95
2023-02-11T07:06:55.346Z,25.92
2023-02-11T07:09:25.622Z,25.42
2023-02-11T07:11:57.420Z,25.33
2023-02-11T07:14:28.247Z,26.25
2023-02-11T07:16:59.646Z,29.52
2023-02-11T07:19:29.953Z,26.90
2023-02-11T07:22:00.320Z,26.52
2023-02-11T07:24:30.894Z,24.38
2023-02-11T07:27:01.240Z,23.20
2023-02-11T07:29:31.475Z,23.58
2023-02-11T07:32:01.985Z,23.88
2023-02-11T07:34:32.188Z,23.13
2023-02-11T07:37:02.634Z,27.20
2023-02-11T07:39:33.200Z,23.40
2023-02-11T07:42:03.631Z,27.33
2023-02-11T07:44:34.869Z,22.83
2023-02-11T07:47:06.037Z,21.52
2023-02-11T07:49:36.436Z,24.77
2023-02-11T07:52:06.733Z,24.00
2023-02-11T07:54:37.278Z,24.77
2023-02-11T07:57:08.323Z,23.00
2023-02-11T07:59:38.509Z,22.10
2023-02-11T08:02:09.367Z,23.23
2023-02-11T08:04:39.977Z,22.98
2023-02-11T08:07:10.456Z,23.33
2023-02-11T08:09:40.862Z,26.23
2023-02-11T08:12:11.054Z,22.92
2023-02-11T08:14:41.882Z,22.92
2023-02-11T08:17:12.519Z,26.55
2023-02-11T08:19:43.383Z,20.95
2023-02-11T08:22:14.100Z,22.30
2023-02-11T08:24:44.534Z,23.50
2023-02-11T08:27:14.902Z,20.17
2023-02-11T08:29:45.881Z,20.88
2023-02-11T08:32:16.150Z,21.33
2023-02-11T08:34:46.653Z,23.58
2023-02-11T08:37:17.220Z,22.40
2023-02-11T08:39:48.781Z,21.83
2023-02-11T08:42:19.335Z,21.73
2023-02-11T08:44:50.104Z,24.60
2023-02-11T08:47:20.271Z,21.20
2023-02-11T08:49:51.236Z,24.55
2023-02-11T08:52:22.046Z,21.92
2023-02-11T08:54:52.642Z,21.83
2023-02-11T08:57:22.803Z,21.13
2023-02-11T08:59:53.273Z,23.08
2023-02-11T09:02:23.752Z,23.15
2023-02-11T09:04:54.085Z,21.00
2023-02-11T09:07:24.795Z,21.48
2023-02-11T09:09:55.069Z,22.05
2023-02-11T09:12:25.834Z,21.48
2023-02-11T09:14:56.194Z,19.67
2023-02-11T09:17:26.389Z,19.63
2023-02-11T09:19:56.476Z,23.88
2023-02-11T09:22:26.815Z,23.30
2023-02-11T09:24:57.305Z,27.10
2023-02-11T09:27:27.360Z,20.92
2023-02-11T09:29:57.478Z,22.55
2023-02-11T09:32:27.521Z,20.88
2023-02-11T09:34:57.696Z,24.75
2023-02-11T09:37:28.152Z,22.92
2023-02-11T09:39:58.343Z,24.67
2023-02-11T09:42:48.393Z,25.52
2023-02-11T09:45:27.864Z,20.88
2023-02-11T09:48:17.954Z,19.83
2023-02-11T09:50:54.168Z,20.77
2023-02-11T09:53:29.855Z,25.48
2023-02-11T09:56:02.110Z,22.92
2023-02-11T09:58:37.181Z,22.38
2023-02-11T10:01:26.808Z,21.92
2023-02-11T10:04:17.199Z,25.52
2023-02-11T10:06:54.918Z,29.42
2023-02-11T10:09:44.922Z,21.05
2023-02-11T10:12:30.934Z,20.08
2023-02-11T10:15:21.187Z,23.58
2023-02-11T10:18:10.964Z,22.77
2023-02-11T10:20:45.009Z,23.35
2023-02-11T10:23:19.274Z,25.42
2023-02-11T10:25:52.297Z,29.20
2023-02-11T10:28:27.451Z,26.50
2023-02-11T10:31:05.438Z,32.72
2023-02-11T10:33:44.041Z,29.00
2023-02-11T10:36:15.035Z,31.17
2023-02-11T10:38:45.964Z,32.40
2023-02-11T10:41:19.215Z,28.20
2023-02-11T10:43:50.083Z,27.75
2023-02-11T10:46:22.191Z,24.75
2023-02-11T10:48:55.332Z,25.65
2023-02-11T10:51:30.185Z,26.40
2023-02-11T10:54:14.794Z,30.58
2023-02-11T10:56:51.602Z,27.42
2023-02-11T10:59:29.085Z,28.15
2023-02-11T11:02:02.060Z,30.10
2023-02-11T11:04:38.057Z,31.05
2023-02-11T11:07:28.915Z,44.20
2023-02-11T11:10:01.277Z,47.95
2023-02-11T11:12:51.662Z,32.80
2023-02-11T11:15:23.491Z,36.75
2023-02-11T11:18:04.102Z,32.90
2023-02-11T11:20:42.706Z,36.83
2023-02-11T11:23:25.509Z,40.70
2023-02-11T11:26:06.963Z,39.00
2023-02-11T11:28:57.511Z,37.08
2023-02-11T11:31:30.807Z,34.83
2023-02-11T11:34:02.537Z,42.28
2023-02-11T11:36:41.300Z,39.35
2023-02-11T11:39:21.512Z,47.65
2023-02-11T11:41:53.206Z,34.17
2023-02-11T11:44:43.784Z,37.63
2023-02-11T11:47:20.947Z,40.55
2023-02-11T11:50:01.386Z,39.13
2023-02-11T11:52:51.116Z,35.65
2023-02-11T11:55:27.780Z,40.10
2023-02-11T11:57:57.859Z,39.55
2023-02-11T12:00:47.499Z,41.45
2023-02-11T12:03:37.502Z,36.33
2023-02-11T12:06:27.555Z,37.08
2023-02-11T12:09:04.552Z,40.20
2023-02-11T12:11:54.228Z,43.33
2023-02-11T12:14:44.470Z,45.78
2023-02-11T12:17:25.325Z,44.38
2023-02-11T12:20:15.542Z,44.00
2023-02-11T12:23:05.801Z,42.47
2023-02-11T12:25:55.557Z,43.35
2023-02-11T12:28:45.292Z,46.10
2023-02-11T12:31:29.479Z,43.78
2023-02-11T12:34:07.624Z,46.70
2023-02-11T12:36:57.381Z,51.50
2023-02-11T12:39:48.108Z,58.08
2023-02-11T12:42:53.337Z,64.05
2023-02-11T12:45:44.450Z,61.33
2023-02-11T12:48:35.771Z,61.38
2023-02-11T12:51:17.277Z,61.20
2023-02-11T12:54:07.029Z,56.38
2023-02-11T12:56:46.504Z,60.55
2023-02-11T12:59:23.358Z,62.88
2023-02-11T13:01:55.239Z,61.35
2023-02-11T13:04:32.452Z,68.63
2023-02-11T13:07:07.045Z,62.80
2023-02-11T13:09:57.114Z,66.50
2023-02-11T13:12:47.517Z,69.82
2023-02-11T13:15:18.187Z,70.85
2023-02-11T13:18:08.508Z,76.80
2023-02-11T13:20:58.112Z,75.00
2023-02-11T13:23:42.271Z,67.38
2023-02-11T13:26:32.220Z,59.88
2023-02-11T13:29:22.332Z,66.40
2023-02-11T13:31:57.009Z,73.47
2023-02-11T13:34:47.149Z,70.80
2023-02-11T13:37:37.177Z,72.57
2023-02-11T13:40:27.034Z,111.22
2023-02-11T13:42:59.314Z,107.82
2023-02-11T13:45:49.030Z,106.90
2023-02-11T13:48:27.357Z,91.78
2023-02-11T13:50:59.447Z,98.22
2023-02-11T13:53:30.342Z,79.45
2023-02-11T13:56:12.917Z,89.63
2023-02-11T13:58:52.827Z,84.38
2023-02-11T14:01:43.958Z,72.68
2023-02-11T14:04:45.879Z,73.03
2023-02-11T14:07:50.630Z,66.97
2023-02-11T14:10:40.926Z,62.67
2023-02-11T14:13:30.874Z,67.38
2023-02-11T14:16:08.736Z,75.15
2023-02-11T14:18:58.744Z,59.83
2023-02-11T14:21:38.025Z,61.28
2023-02-11T14:24:28.051Z,69.65
2023-02-11T14:27:22.249Z,68.53
2023-02-11T14:29:58.652Z,67.45
2023-02-11T14:32:39.538Z,67.40
2023-02-11T14:35:29.586Z,131.35
2023-02-11T14:38:08.793Z,70.20
2023-02-11T14:40:58.962Z,70.07
2023-02-11T14:43:31.436Z,60.10
2023-02-11T14:46:02.951Z,61.17
2023-02-11T14:48:36.681Z,61.25
2023-02-11T14:51:12.998Z,56.30
2023-02-11T14:53:47.878Z,57.17
2023-02-11T14:56:38.587Z,60.17
2023-02-11T14:59:22.390Z,59.83
2023-02-11T15:01:53.795Z,55.85
2023-02-11T15:04:34.552Z,58.85
2023-02-11T15:07:13.456Z,60.10
2023-02-11T15:09:44.470Z,53.63
2023-02-11T15:12:20.190Z,52.17
2023-02-11T15:14:51.503Z,52.03
2023-02-11T15:17:30.189Z,57.30
2023-02-11T15:20:02.645Z,48.78
2023-02-11T15:22:35.322Z,50.75
2023-02-11T15:25:18.167Z,57.03
2023-02-11T15:27:50.186Z,49.42
2023-02-11T15:30:29.865Z,55.97
2023-02-11T15:33:05.100Z,56.95
2023-02-11T15:35:42.576Z,69.63
2023-02-11T15:38:15.719Z,78.15
2023-02-11T15:40:53.951Z,63.42
2023-02-11T15:43:24.911Z,66.13
2023-02-11T15:46:02.128Z,68.35
2023-02-11T15:48:40.303Z,63.65
2023-02-11T15:51:31.087Z,64.35
2023-02-11T15:54:04.189Z,62.63
2023-02-11T15:56:44.549Z,57.72
2023-02-11T15:59:23.664Z,58.85
2023-02-11T16:01:54.593Z,50.45
2023-02-11T16:04:26.596Z,48.15
2023-02-11T16:06:58.136Z,47.95
2023-02-11T16:09:34.240Z,43.47
2023-02-11T16:12:09.011Z,42.47
2023-02-11T16:14:40.639Z,44.63
2023-02-11T16:17:13.746Z,45.10
2023-02-11T16:19:49.190Z,58.22
2023-02-11T16:22:25.275Z,57.33
2023-02-11T16:24:56.261Z,57.25
2023-02-11T16:27:45.780Z,171.80
2023-02-11T16:30:35.777Z,57.08
2023-02-11T16:33:07.077Z,54.80
2023-02-11T16:35:38.888Z,52.20
2023-02-11T16:38:09.588Z,57.15
2023-02-11T16:40:39.928Z,55.97
2023-02-11T16:43:11.117Z,57.20
2023-02-11T16:45:42.434Z,56.05
2023-02-11T16:48:15.499Z,51.53
2023-02-11T16:50:49.288Z,56.90
2023-02-11T16:53:27.071Z,52.70
2023-02-11T16:55:57.388Z,61.15
2023-02-11T16:58:28.038Z,61.53
2023-02-11T17:00:58.708Z,59.83
2023-02-11T17:03:30.390Z,55.30
2023-02-11T17:06:04.221Z,49.58
2023-02-11T17:08:35.070Z,54.70
2023-02-11T17:11:06.423Z,55.25
2023-02-11T17:13:38.017Z,53.78
2023-02-11T17:16:08.452Z,56.95
2023-02-11T17:18:39.122Z,61.25
2023-02-11T17:21:09.933Z,63.95
2023-02-11T17:23:40.248Z,69.93
2023-02-11T17:26:11.328Z,68.05
2023-02-11T17:28:41.919Z,69.15
2023-02-11T17:31:13.448Z,69.40
2023-02-11T17:33:44.091Z,61.47
2023-02-11T17:36:14.572Z,62.50
2023-02-11T17:38:44.876Z,63.30
2023-02-11T17:41:15.385Z,57.97
2023-02-11T17:43:46.397Z,62.97
2023-02-11T17:46:16.986Z,63.92
2023-02-11T17:48:47.635Z,57.20
2023-02-11T17:51:37.623Z,58.35
2023-02-11T17:54:09.242Z,59.53
2023-02-11T17:56:39.853Z,56.25
2023-02-11T17:59:11.524Z,57.72
2023-02-11T18:01:42.766Z,63.45
2023-02-11T18:04:15.578Z,59.65
2023-02-11T18:06:46.024Z,60.30
2023-02-11T18:09:16.681Z,61.08
2023-02-11T18:11:46.923Z,62.78
2023-02-11T18:14:17.764Z,58.60
2023-02-11T18:16:48.992Z,63.90
2023-02-11T18:19:19.622Z,62.70
2023-02-11T18:21:50.494Z,62.92
2023-02-11T18:24:20.783Z,77.22
2023-02-11T18:26:51.021Z,69.75
2023-02-11T18:29:21.496Z,65.82
2023-02-11T18:34:37.944Z,57.50
2023-02-11T18:37:08.226Z,65.72
2023-02-11T18:39:38.837Z,63.90
2023-02-11T18:42:09.523Z,60.97
2023-02-11T18:44:40.099Z,63.30
2023-02-11T18:47:10.440Z,58.35
2023-02-11T18:49:40.568Z,62.33
2023-02-11T18:52:10.727Z,61.95
2023-02-11T18:54:41.418Z,59.30
2023-02-11T18:57:12.009Z,57.55
2023-02-11T18:59:42.039Z,55.47
2023-02-11T19:02:13.711Z,53.22
2023-02-11T19:04:44.455Z,52.55
2023-02-11T19:07:15.089Z,59.35
2023-02-11T19:09:45.859Z,60.47
2023-02-11T19:12:16.048Z,59.42
2023-02-11T19:14:46.183Z,59.33
2023-02-11T19:17:16.536Z,57.42
2023-02-11T19:19:46.619Z,52.80
2023-02-11T19:22:17.025Z,57.22
2023-02-11T19:24:47.570Z,60.85
2023-02-11T19:27:18.096Z,60.60
2023-02-11T19:29:48.230Z,55.50
2023-02-11T19:32:18.561Z,60.28
2023-02-11T19:34:49.069Z,60.58
2023-02-11T19:37:19.565Z,55.22
2023-02-11T19:39:50.130Z,65.25
2023-02-11T19:42:20.334Z,56.20
2023-02-11T19:44:50.669Z,57.13
2023-02-11T19:47:21.511Z,57.08
2023-02-11T19:49:51.908Z,58.42
2023-02-11T19:52:22.029Z,58.38
2023-02-11T19:54:52.422Z,56.30
2023-02-11T19:57:23.014Z,62.30
2023-02-11T19:59:56.298Z,62.30
2023-02-11T20:02:26.409Z,56.80
2023-02-11T20:04:56.991Z,61.42
2023-02-11T20:07:27.345Z,63.05
2023-02-11T20:09:57.454Z,61.92
2023-02-11T20:12:27.567Z,59.30
2023-02-11T20:14:58.003Z,57.40
2023-02-11T20:17:28.554Z,60.50
2023-02-11T20:19:59.431Z,60.60
2023-02-11T20:22:29.814Z,61.20
2023-02-11T20:25:00.195Z,65.47
2023-02-11T20:27:30.996Z,59.67
2023-02-11T20:30:01.598Z,63.15
2023-02-11T20:32:33.017Z,60.35
2023-02-11T20:35:03.116Z,54.20
2023-02-11T20:37:33.356Z,58.30
2023-02-11T20:40:03.461Z,54.88
2023-02-11T20:42:33.810Z,60.72
2023-02-11T20:45:04.173Z,61.78
2023-02-11T20:47:35.978Z,59.33
2023-02-11T20:50:07.260Z,58.03
2023-02-11T20:52:38.405Z,56.05
2023-02-11T20:55:08.578Z,55.75
2023-02-11T20:57:39.007Z,59.40
2023-02-11T21:00:10.271Z,61.97
2023-02-11T21:02:40.876Z,63.42
2023-02-11T21:05:11.202Z,60.45
2023-02-11T21:07:42.931Z,55.60
2023-02-11T21:10:13.386Z,61.97
2023-02-11T21:12:43.770Z,67.93
2023-02-11T21:15:14.920Z,62.70
2023-02-11T21:17:45.662Z,63.10
2023-02-11T21:20:16.395Z,61.58
2023-02-11T21:22:46.885Z,65.32
2023-02-11T21:25:17.526Z,61.08
2023-02-11T21:27:47.976Z,59.35
2023-02-11T21:30:18.945Z,65.55
2023-02-11T21:32:49.278Z,62.38
2023-02-11T21:35:19.508Z,65.20
2023-02-11T21:37:49.700Z,63.45
2023-02-11T21:40:22.838Z,65.97
2023-02-11T21:42:53.935Z,64.20
2023-02-11T21:45:24.554Z,62.70
2023-02-11T21:47:55.126Z,65.65
2023-02-11T21:50:25.356Z,65.38
2023-02-11T21:52:55.537Z,62.97
2023-02-11T21:55:25.615Z,62.00
2023-02-11T21:57:55.778Z,62.22
2023-02-11T22:00:26.735Z,59.97
2023-02-11T22:02:57.269Z,61.72
2023-02-11T22:05:27.550Z,58.22
2023-02-11T22:07:58.021Z,62.58
2023-02-11T22:10:28.596Z,59.40
2023-02-11T22:12:58.705Z,56.78
2023-02-11T22:15:28.817Z,69.00
2023-02-11T22:17:59.005Z,63.28
2023-02-11T22:20:29.402Z,74.88
2023-02-11T22:23:01.228Z,66.35
2023-02-11T22:25:31.440Z,61.22
2023-02-11T22:28:01.607Z,69.82
2023-02-11T22:30:31.830Z,73.13
2023-02-11T22:33:02.611Z,75.63
2023-02-11T22:35:33.451Z,67.65
2023-02-11T22:38:03.908Z,64.00
2023-02-11T22:40:34.423Z,62.55
2023-02-11T22:43:04.825Z,66.40
2023-02-11T22:45:36.574Z,64.55
2023-02-11T22:48:07.034Z,65.10
2023-02-11T22:50:38.118Z,70.50
2023-02-11T22:53:08.535Z,68.88
2023-02-11T22:55:42.606Z,65.88
2023-02-11T22:58:13.014Z,66.80
2023-02-11T23:00:44.291Z,70.70
2023-02-11T23:03:15.024Z,83.88
2023-02-11T23:05:45.508Z,96.60
2023-02-11T23:08:15.621Z,75.80
2023-02-11T23:10:46.431Z,75.38
2023-02-11T23:13:17.440Z,70.93
2023-02-11T23:15:48.915Z,66.07
2023-02-11T23:18:19.608Z,71.55
2023-02-11T23:20:49.985Z,82.68
2023-02-11T23:23:20.035Z,84.40
2023-02-11T23:25:50.797Z,78.50
2023-02-11T23:28:21.216Z,76.45
2023-02-11T23:30:51.741Z,73.60
2023-02-11T23:33:22.102Z,74.75
2023-02-11T23:35:52.458Z,74.18
2023-02-11T23:38:22.894Z,70.40
2023-02-11T23:40:53.936Z,70.53
2023-02-11T23:43:24.453Z,74.90
2023-02-11T23:45:55.202Z,60.33
2023-02-11T23:48:25.983Z,54.22
2023-02-11T23:50:56.538Z,68.25
2023-02-11T23:53:26.899Z,64.57
2023-02-11T23:55:57.178Z,74.90
2023-02-11T23:58:27.632Z,69.20
